Tiempo atmosférico en la estación meteorológica de Bustillo del Páramo, León (850 m.)



Fecha
DESCASC
Temp. máxima en grados centígrados (hora)
DESCASC
Temp. mínima en grados centígrados (hora)
DESCASC
Temp. media en grados centígrados
DESCASC
Racha de viento máxima en m/sg (hora)
DESCASC
Velocidad máxima media en intervalos de 10 minutos(hora)
DESCASC
Precipitaciones diarias en mm
DESCASC
Precipitaciones de 00:00 a 06:00 en mm
DESCASC
Precipitaciones de 06:00 a 12:00 en mm
DESCASC
Precipitaciones de 12:00 a 18:00 en mm
DESCASC
Precipitaciones de 18:00 a 24:00 en mm
DESCASC
26-03-2020 16.1 (15:30) -3.3 (06:40) 6.4 11.11 (20:00) 8.33 (17:50) 0 0 0 0 0
25-03-2020 18.7 (15:30) 2.3 (07:10) 10.5 11.67 (17:50) 8.89 (17:20) 0 0 0 0 0
24-03-2020 16.3 (17:20) 4.6 (04:50) 10.4 10.28 (11:00) 5.56 (09:30) 0 0 0 0 0
23-03-2020 14.9 (17:30) 0.6 (07:30) 7.7 7.78 (15:20) 5.28 (09:50) 0 0 0 0 0
22-03-2020 16.2 (15:30) 4.3 (23:59) 10.3 15.83 (15:40) 10.83 (15:40) 0.8 0 0 0.6 0.2
21-03-2020 13.1 (16:10) 6.5 (00:00) 9.8 7.5 (10:20) 5.83 (10:10) 0.2 0 0.2 0 0
20-03-2020 12.6 (13:30) 6.6 (00:00) 9.6 7.22 (16:40) 5 (16:40) 1.6 0 0 1.6 0
19-03-2020 17.1 (14:30) 3.9 (00:00) 10.5 8.06 (15:20) 5.28 (15:20) 0 0 0 0 0
18-03-2020 17.7 (15:40) 3.9 (00:00) 10.8 7.78 (15:20) 3.06 (03:50) 0 0 0 0 0
17-03-2020 15.5 (13:30) 1.4 (00:00) 8.4 12.22 (14:50) 8.61 (13:00) 0 0 0 0 0
16-03-2020 10.4 (14:20) 1 (00:00) 5.7 16.67 (13:40) 12.5 (14:50) 0.8 0.8 0 0 0
15-03-2020 16.1 (13:40) -0.9 (-00:0) 7.6 15.56 (19:20) 10.83 (19:20) 1.6 0 0 0 1.6
14-03-2020 17.2 (17:10) -0.4 (00:00) 8.4 5.83 (15:10) 3.06 (15:10) 0 0 0 0 0
13-03-2020 15.5 (17:40) 4.7 (23:59) 10.1 4.72 (13:40) 3.61 (19:50) 0 0 0 0 0
12-03-2020 19.7 (15:40) 5.2 (00:00) 12.5 6.11 (18:10) 4.44 (18:20) 0 0 0 0 0
11-03-2020 21.4 (16:40) 1.6 (00:00) 11.5 5.83 (02:30) 4.72 (02:30) 0 0 0 0 0
10-03-2020 21.5 (17:40) 4.2 (00:00) 12.8 6.67 (15:50) 4.44 (03:00) 0 0 0 0 0
09-03-2020 16.1 (16:40) 0.7 (00:00) 8.4 8.33 (17:20) 6.11 (17:10) 0 0 0 0 0
08-03-2020 13.8 (15:40) -0.1 (00:00) 6.9 14.17 (16:10) 9.72 (16:10) 0 0 0 0 0
07-03-2020 15 (17:20) 2.4 (00:00) 8.7 9.17 (10:00) 6.11 (10:00) 0 0 0 0 0
06-03-2020 9.2 (14:30) 2.4 (00:00) 5.8 16.11 (14:10) 11.39 (18:30) 0.4 0.2 0 0.2 0
05-03-2020 11.6 (16:00) 2.8 (00:00) 7.2 17.5 (11:30) 11.67 (11:00) 2.6 0 2.6 0 0
04-03-2020 14.9 (16:30) 8.6 (00:00) 11.8 11.67 (04:40) 7.78 (16:20) 0 0 0 0 0
03-03-2020 15.4 (13:40) 3.6 (00:00) 9.5 20.28 (13:20) 14.44 (13:20) 2.4 0.6 1.8 0 0
02-03-2020 9.7 (02:50) 2.6 (00:00) 6.1 22.5 (03:50) 13.89 (04:00) 6.6 6 0.4 0.2 0
01-03-2020 14.4 (14:10) 4.4 (00:00) 9.4 13.33 (16:10) 9.17 (16:10) 5.4 0.4 0.2 0 4.8
29-02-2020 11.8 (15:20) 5.8 (00:00) 8.8 18.06 (14:10) 12.5 (14:10) 0 0 0 0 0
28-02-2020 16.3 (16:20) 1 (00:00) 8.6 11.39 (17:00) 8.06 (17:20) 0 0 0 0 0

Gráficas

Temp. máximas Temp. mínimas Temp. medias Precipitaciones Rachas de viento máximas Velocidades máximas media en intervalos de 10 minutos

Datos horarios

Fecha y hora oficial Temperatura (ºC) Velocidad del viento (km/h) Dirección del viento Racha (km/h) Dirección de racha Precipitación (mm) Presión (hPa) Tendencia (hPa) Humedad (%)
2020-03-28 23:00:00 4.3 8 Noroeste 10 Noroeste 0 -- -- 70
2020-03-28 22:00:00 6.3 2 Este 7 Sudeste 0 -- -- 60
2020-03-28 21:00:00 9.4 7 Sudeste 10 Sudeste 0 -- -- 47
2020-03-28 20:00:00 11.7 8 Sur 10 Sur 0 -- -- 39
2020-03-28 19:00:00 13.8 8 Sudeste 16 Sur 0 -- -- 33
2020-03-28 18:00:00 15 8 Sudeste 17 Sur 0 -- -- 29
2020-03-28 17:00:00 15.7 8 Sur 19 Sudeste 0 -- -- 28
2020-03-28 16:00:00 15.1 8 Sudeste 18 Sur 0 -- -- 26
2020-03-28 15:00:00 14.6 8 Sudeste 23 Este 0 -- -- 28
2020-03-28 14:00:00 14.2 8 Sur 17 Sudeste 0 -- -- 29
2020-03-28 13:00:00 13.4 6 Sudeste 15 Sudoeste 0 -- -- 33
2020-03-28 12:00:00 12.1 4 Este 14 Este 0 -- -- 37
2020-03-28 11:00:00 10.4 4 Este 12 Sudeste 0 -- -- 46
2020-03-28 10:00:00 8.1 6 Nordeste 10 Nordeste 0 -- -- 53
2020-03-28 09:00:00 4.7 4 Noroeste 8 Norte 0 -- -- 69
2020-03-28 08:00:00 -0.3 6 Norte 11 Noroeste 0 -- -- 84
2020-03-28 07:00:00 -1.8 8 Noroeste 13 Noroeste 0 -- -- 83
2020-03-28 06:00:00 -1.9 7 Noroeste 10 Noroeste 0 -- -- 84
2020-03-28 05:00:00 -1.9 7 Noroeste 11 Norte 0 -- -- 83
2020-03-28 04:00:00 -1.3 8 Noroeste 14 Norte 0 -- -- 80
2020-03-28 03:00:00 -1 7 Noroeste 10 Noroeste 0 -- -- 78
2020-03-28 02:00:00 0.7 7 Oeste 20 Sudoeste 0 -- -- 71
2020-03-28 01:00:00 1.5 9 Nordeste 15 Nordeste 0 -- -- 69
2020-03-28 00:00:00 1.9 9 Nordeste 17 Nordeste 0 -- -- 64
2020-03-27 23:00:00 2.2 8 Nordeste 11 Nordeste 0 -- -- 63
2020-03-27 22:00:00 3.1 8 Nordeste 11 Nordeste 0 -- -- 61
2020-03-27 21:00:00 4.5 8 Nordeste 11 Nordeste 0 -- -- 55
2020-03-27 20:00:00 7.3 10 Nordeste 15 Este 0 -- -- 45
2020-03-27 19:00:00 10.2 12 Este 25 Este 0 -- -- 36
2020-03-27 18:00:00 11 14 Este 29 Este 0 -- -- 34
2020-03-27 17:00:00 11.3 14 Este 33 Este 0 -- -- 33
2020-03-27 16:00:00 11.1 22 Este 36 Este 0 -- -- 31
2020-03-27 15:00:00 10.5 21 Este 40 Este 0 -- -- 35
2020-03-27 14:00:00 10 19 Este 41 Este 0 -- -- 37
2020-03-27 13:00:00 8.9 20 Este 31 Este 0 -- -- 43
2020-03-27 12:00:00 7.2 18 Este 37 Este 0 -- -- 43
2020-03-27 11:00:00 5.8 26 Este 39 Nordeste 0 -- -- 50
2020-03-27 10:00:00 4.4 19 Nordeste 30 Nordeste 0 -- -- 54
2020-03-27 09:00:00 1.2 6 Norte 15 Norte 0 -- -- 78
2020-03-27 08:00:00 -2.6 3 Norte 7 Norte 0 -- -- 90
2020-03-27 07:00:00 -3.2 5 Norte 10 Norte 0 -- -- 89
2020-03-27 06:00:00 -2.2 4 Nordeste 9 Este 0 -- -- 86
2020-03-27 05:00:00 -1.3 6 Este 13 Este 0 -- -- 84
2020-03-27 04:00:00 -0.7 6 Este 10 Sudeste 0 -- -- 80
2020-03-27 03:00:00 1 8 Nordeste 20 Norte 0 -- -- 71
2020-03-27 02:00:00 1.3 7 Norte 12 Norte 0 -- -- 68
2020-03-27 01:00:00 1.5 10 Norte 20 Nordeste 0 -- -- 69
2020-03-27 00:00:00 2.8 15 Norte 25 Norte 0 -- -- 62
2020-03-26 23:00:00 3 5 Este 26 Nordeste 0 -- -- 61
2020-03-26 22:00:00 4.9 9 Nordeste 28 Nordeste 0 -- -- 55
2020-03-26 21:00:00 6 13 Nordeste 37 Norte 0 -- -- 49
2020-03-26 20:00:00 8.3 28 Norte 40 Norte 0 -- -- 41
2020-03-26 19:00:00 10.8 23 Norte 38 Norte 0 -- -- 36
2020-03-26 18:00:00 13.1 26 Nordeste 40 Norte 0 -- -- 30
2020-03-26 17:00:00 14.8 26 Norte 36 Norte 0 -- -- 24
2020-03-26 16:00:00 15.9 17 Norte 29 Noroeste 0 -- -- 21
2020-03-26 15:00:00 15.8 13 Nordeste 22 Norte 0 -- -- 17
2020-03-26 14:00:00 14 5 Este 17 Este 0 -- -- 27
2020-03-26 13:00:00 12.4 5 Sur 12 Sudoeste 0 -- -- 34
2020-03-26 12:00:00 9.3 5 Sur 15 Sudoeste 0 -- -- 45
2020-03-26 11:00:00 7.1 6 Sudoeste 13 Sur 0 -- -- 56
2020-03-26 10:00:00 4.9 3 Sur 6 Sudeste 0 -- -- 66
2020-03-26 09:00:00 1.7 3 Sudeste 5 Sudeste 0 -- -- 81
2020-03-26 08:00:00 -2.1 2 Nordeste 7 Este 0 -- -- 87
2020-03-26 07:00:00 -2.5 6 Este 10 Este 0 -- -- 80
2020-03-26 06:00:00 -1.8 6 Este 14 Norte 0 -- -- 66
2020-03-26 05:00:00 0.1 12 Noroeste 18 Noroeste 0 -- -- 53
2020-03-26 04:00:00 0.6 12 Noroeste 17 Noroeste 0 -- -- 58
2020-03-26 03:00:00 0.5 14 Noroeste 19 Noroeste 0 -- -- 60
2020-03-26 02:00:00 1 14 Noroeste 17 Noroeste 0 -- -- 57
2020-03-26 01:00:00 2.1 12 Noroeste 18 Noroeste 0 -- -- 56
2020-03-26 00:00:00 4 14 Noroeste 28 Norte 0 -- -- 54
2020-03-25 23:00:00 4.9 15 Noroeste 21 Noroeste 0 -- -- 51
2020-03-25 22:00:00 6 13 Noroeste 18 Noroeste 0 -- -- 50
2020-03-25 21:00:00 8.6 15 Norte 26 Norte 0 -- -- 40
2020-03-25 20:00:00 11.2 20 Norte 32 Norte 0 -- -- 31
2020-03-25 19:00:00 14.2 26 Norte 38 Norte 0 -- -- 24
2020-03-25 18:00:00 16.4 30 Norte 42 Norte 0 -- -- 22
2020-03-25 17:00:00 17.6 27 Norte 37 Norte 0 -- -- 22
2020-03-25 16:00:00 18.3 22 Norte 34 Norte 0 -- -- 19
2020-03-25 15:00:00 18.5 16 Norte 32 Norte 0 -- -- 21
2020-03-25 14:00:00 18.3 17 Norte 30 Noroeste 0 -- -- 23
2020-03-25 13:00:00 17.5 12 Noroeste 37 Noroeste 0 -- -- 35
2020-03-25 12:00:00 15.9 10 Noroeste 24 Noroeste 0 -- -- 46
2020-03-25 11:00:00 14.4 16 Noroeste 24 Oeste 0 -- -- 54
2020-03-25 10:00:00 10.3 5 Oeste 12 Oeste 0 -- -- 70
2020-03-25 09:00:00 6.9 5 Norte 13 Noroeste 0 -- -- 83
2020-03-25 08:00:00 3.1 10 Noroeste 14 Noroeste 0 -- -- 93
2020-03-25 07:00:00 2.4 8 Noroeste 15 Noroeste 0 -- -- 91
2020-03-25 06:00:00 2.7 9 Noroeste 12 Noroeste 0 -- -- 91
2020-03-25 05:00:00 2.5 6 Noroeste 9 Noroeste 0 -- -- 90
2020-03-25 04:00:00 3.1 8 Noroeste 10 Noroeste 0 -- -- 90
2020-03-25 03:00:00 3.8 8 Noroeste 15 Noroeste 0 -- -- 87
2020-03-25 02:00:00 4.3 10 Noroeste 12 Noroeste 0 -- -- 86
2020-03-25 01:00:00 5.3 8 Noroeste 9 Noroeste 0 -- -- 81
2020-03-25 00:00:00 7.3 9 Nordeste 10 Nordeste 0 -- -- 75
2020-03-24 23:00:00 9.7 6 Nordeste 23 Este 0 -- -- 69
2020-03-24 22:00:00 9.4 9 Este 12 Este 0 -- -- 74
2020-03-24 21:00:00 9.7 5 Este 10 Sudeste 0 -- -- 64
2020-03-24 20:00:00 11.8 9 Sudeste 19 Este 0 -- -- 57
2020-03-24 19:00:00 14.6 12 Este 22 Este 0 -- -- 48
2020-03-24 18:00:00 16 10 Este 27 Este 0 -- -- 46
2020-03-24 17:00:00 16 11 Este 26 Este 0 -- -- 45
2020-03-24 16:00:00 15.4 3 Este 31 Este 0 -- -- 47
2020-03-24 15:00:00 15.4 14 Este 26 Nordeste 0 -- -- 48
2020-03-24 14:00:00 14.6 10 Este 27 Este 0 -- -- 52
2020-03-24 13:00:00 13.7 13 Este 31 Este 0 -- -- 55
2020-03-24 12:00:00 12.7 18 Este 32 Este 0 -- -- 61
2020-03-24 11:00:00 11.1 20 Este 37 Este 0 -- -- 70
2020-03-24 10:00:00 10.3 19 Este 31 Este 0 -- -- 74
2020-03-24 09:00:00 8.7 17 Nordeste 24 Este 0 -- -- 79
2020-03-24 08:00:00 5.5 7 Nordeste 14 Nordeste 0 -- -- 91
2020-03-24 07:00:00 5.2 6 Nordeste 17 Nordeste 0 -- -- 88
2020-03-24 06:00:00 6 10 Nordeste 19 Nordeste 0 -- -- 88
2020-03-24 05:00:00 5 10 Nordeste 17 Nordeste 0 -- -- 93
2020-03-24 04:00:00 5.2 6 Nordeste 16 Nordeste 0 -- -- 89
2020-03-24 03:00:00 6.5 12 Nordeste 19 Nordeste 0 -- -- 88
2020-03-24 02:00:00 6.2 9 Nordeste 15 Este 0 -- -- 88
2020-03-24 01:00:00 6.5 9 Nordeste 16 Nordeste 0 -- -- 85
2020-03-24 00:00:00 7.6 13 Este 21 Nordeste 0 -- -- 82
2020-03-23 23:00:00 8.6 11 Este 26 Este 0 -- -- 78
2020-03-23 22:00:00 10.5 12 Este 25 Este 0 -- -- 72
2020-03-23 21:00:00 9.8 8 Este 13 Este 0 -- -- 70
2020-03-23 20:00:00 10.1 9 Este 13 Este 0 -- -- 65
2020-03-23 19:00:00 13.4 13 Este 19 Este 0 -- -- 53
2020-03-23 18:00:00 14.3 12 Sudeste 21 Este 0 -- -- 46
2020-03-23 17:00:00 14.6 12 Este 27 Este 0 -- -- 46
2020-03-23 16:00:00 13.9 15 Este 28 Este 0 -- -- 48
2020-03-23 15:00:00 13.7 12 Este 26 Este 0 -- -- 51
2020-03-23 14:00:00 13.9 11 Este 24 Este 0 -- -- 52
2020-03-23 13:00:00 12.4 7 Este 22 Nordeste 0 -- -- 60
2020-03-23 12:00:00 12.1 8 Este 22 Este 0 -- -- 60
2020-03-23 11:00:00 10.6 16 Este 24 Nordeste 0 -- -- 70
2020-03-23 10:00:00 8.9 18 Nordeste 27 Nordeste 0 -- -- 75
2020-03-23 09:00:00 5.2 7 Norte 13 Noroeste 0 -- -- 92
2020-03-23 08:00:00 1 8 Noroeste 13 Noroeste 0 -- -- 94
2020-03-23 07:00:00 0.8 8 Noroeste 14 Noroeste 0 -- -- 93
2020-03-23 06:00:00 0.8 9 Noroeste 11 Noroeste 0 -- -- 93
2020-03-23 05:00:00 0.9 7 Noroeste 9 Noroeste 0 -- -- 93
2020-03-23 04:00:00 1.2 6 Noroeste 11 Noroeste 0 -- -- 92
2020-03-23 03:00:00 1.9 7 Norte 10 Norte 0 -- -- 91
2020-03-23 02:00:00 2.2 8 Norte 10 Norte 0 -- -- 91
2020-03-23 01:00:00 3.3 8 Norte 12 Norte 0 -- -- 90
2020-03-23 00:00:00 4.3 10 Norte 13 Norte 0 -- -- 87
2020-03-22 23:00:00 5.5 8 Norte 12 Norte 0 -- -- 86
2020-03-22 22:00:00 7.7 9 Nordeste 18 Este 0 -- -- 80
2020-03-22 21:00:00 9 10 Este 17 Nordeste 0 -- -- 77
2020-03-22 20:00:00 9 10 Nordeste 23 Norte 0 -- -- 76
2020-03-22 19:00:00 10.3 24 Noroeste 39 Noroeste 0.2 -- -- 73
2020-03-22 18:00:00 12.2 8 Norte 12 Norte 0 -- -- 71
2020-03-22 17:00:00 11.4 9 Sur 51 Norte 0.4 -- -- 73
2020-03-22 16:00:00 10.7 37 Este 57 Este 0.2 -- -- 62
2020-03-22 15:00:00 15.3 7 Sur 22 Este 0 -- -- 50
2020-03-22 14:00:00 15.2 13 Este 28 Este 0 -- -- 50
2020-03-22 13:00:00 14.5 9 Este 21 Este 0 -- -- 55
2020-03-22 12:00:00 13.3 5 Nordeste 16 Nordeste 0 -- -- 63
2020-03-22 11:00:00 11.6 5 Nordeste 12 Nordeste 0 -- -- 77
2020-03-22 10:00:00 9 0 Calma 6 Noroeste 0 -- -- 94
2020-03-22 09:00:00 6.3 0 Calma 10 Norte 0 -- -- 97
2020-03-22 08:00:00 5 6 Noroeste 12 Noroeste 0 -- -- 96
2020-03-22 07:00:00 5.4 8 Noroeste 10 Oeste 0 -- -- 96
2020-03-22 06:00:00 6 4 Nordeste 7 Norte 0 -- -- 97
2020-03-22 05:00:00 5.5 5 Norte 9 Nordeste 0 -- -- 97
2020-03-22 04:00:00 5.1 3 Nordeste 6 Este 0 -- -- 94
2020-03-22 03:00:00 6.3 6 Este 11 Nordeste 0 -- -- 95
2020-03-22 02:00:00 5.5 6 Este 9 Este 0 -- -- 95
2020-03-22 01:00:00 6.3 3 Sudeste 10 Sudeste 0 -- -- 92
2020-03-22 00:00:00 6.7 6 Sudeste 16 Sudeste 0 -- -- 92
2020-03-21 23:00:00 6.9 6 Norte 10 Noroeste 0 -- -- 93
2020-03-21 22:00:00 6.5 0 Calma 4 Nordeste 0 -- -- 90
2020-03-21 21:00:00 7.2 3 Este -- -- 0 -- -- 88
2020-03-21 20:00:00 9.2 0 Calma 10 Sudoeste 0 -- -- 82
2020-03-21 19:00:00 11.3 5 Sur 14 Sur 0 -- -- 74
2020-03-21 18:00:00 12.7 6 Sur 13 Sudoeste 0 -- -- 70
2020-03-21 17:00:00 12.9 8 Sudoeste 16 Sudoeste 0 -- -- 69
2020-03-21 16:00:00 12.9 4 Sudeste 12 Este 0 -- -- 64
2020-03-21 15:00:00 12.4 5 Sudeste 16 Este 0 -- -- 66
2020-03-21 14:00:00 12.1 8 Este 20 Este 0 -- -- 70
2020-03-21 13:00:00 11.4 9 Este 21 Este 0 -- -- 71
2020-03-21 12:00:00 10.8 13 Este 24 Este 0 -- -- 75
2020-03-21 11:00:00 10.5 15 Este 27 Nordeste 0 -- -- 77
2020-03-21 10:00:00 9.1 17 Nordeste 26 Nordeste 0.2 -- -- 85
2020-03-21 09:00:00 8 15 Nordeste 21 Nordeste 0 -- -- 91
2020-03-21 08:00:00 7.2 10 Este 21 Este 0 -- -- 93
2020-03-21 07:00:00 7.2 6 Este 18 Este 0 -- -- 93
2020-03-21 06:00:00 7.4 13 Este 23 Este 0 -- -- 94
2020-03-21 05:00:00 7.4 17 Nordeste 24 Nordeste 0 -- -- 96
2020-03-21 04:00:00 7.8 6 Este 13 Nordeste 0 -- -- 97
2020-03-21 03:00:00 7.8 10 Nordeste 18 Nordeste 0 -- -- 97
2020-03-21 02:00:00 7.6 13 Nordeste 19 Nordeste 0 -- -- 96
2020-03-21 01:00:00 7.2 7 Nordeste 11 Este 0 -- -- 96
2020-03-21 00:00:00 7.5 9 Este 12 Nordeste 0 -- -- 96
2020-03-20 23:00:00 7.9 6 Este 9 Este 0 -- -- 94
2020-03-20 22:00:00 9 4 Norte 6 Norte 0 -- -- 94
2020-03-20 21:00:00 9 6 Norte 7 Norte 0 -- -- 93
2020-03-20 20:00:00 9.6 2 Noroeste 4 Nordeste 0 -- -- 92
2020-03-20 19:00:00 9.8 0 Calma 9 Sur 0 -- -- 90
2020-03-20 18:00:00 9.8 8 Sur 21 Sur 0.6 -- -- 89
2020-03-20 17:00:00 11.1 10 Sudeste 26 Este 1 -- -- 82
2020-03-20 16:00:00 12.6 15 Este 25 Sudeste 0 -- -- 68
2020-03-20 15:00:00 12.1 13 Este 25 Este 0 -- -- 71
2020-03-20 14:00:00 11.9 15 Este 24 Este 0 -- -- 71
2020-03-20 13:00:00 11.6 15 Este 24 Este 0 -- -- 74
2020-03-20 12:00:00 10.8 12 Este 23 Este 0 -- -- 78
2020-03-20 11:00:00 9.4 15 Este 23 Este 0 -- -- 83
2020-03-20 10:00:00 8.5 12 Este 18 Nordeste 0 -- -- 87
2020-03-20 09:00:00 7.7 11 Nordeste 20 Nordeste 0 -- -- 88
2020-03-20 08:00:00 7.1 13 Nordeste 19 Nordeste 0 -- -- 90
2020-03-20 07:00:00 7.3 11 Nordeste 21 Nordeste 0 -- -- 87
2020-03-20 06:00:00 7.5 11 Nordeste 25 Nordeste 0 -- -- 84
2020-03-20 05:00:00 8.1 14 Nordeste 23 Nordeste 0 -- -- 79
2020-03-20 04:00:00 8 10 Nordeste 18 Nordeste 0 -- -- 77
2020-03-20 03:00:00 7.4 8 Nordeste 14 Nordeste 0 -- -- 76
2020-03-20 02:00:00 6.8 6 Nordeste 13 Nordeste 0 -- -- 76
2020-03-20 01:00:00 7.6 10 Nordeste 13 Este 0 -- -- 76
2020-03-20 00:00:00 8.1 11 Este 14 Este 0 -- -- 77
2020-03-19 23:00:00 8.2 5 Nordeste 9 Nordeste 0 -- -- 79
2020-03-19 22:00:00 8.9 6 Nordeste 9 Nordeste 0 -- -- 75
2020-03-19 21:00:00 10.2 5 Este 6 Nordeste 0 -- -- 70
2020-03-19 20:00:00 11.5 5 Este 8 Este 0 -- -- 62
2020-03-19 19:00:00 13 6 Este 18 Este 0 -- -- 56
2020-03-19 18:00:00 14 9 Este 20 Este 0 -- -- 52
2020-03-19 17:00:00 15 14 Este 26 Este 0 -- -- 48
2020-03-19 16:00:00 15.9 13 Sudeste 29 Este 0 -- -- 60
2020-03-19 15:00:00 16.4 17 Sudeste 25 Este 0 -- -- 58
2020-03-19 14:00:00 16.5 15 Este 22 Este 0 -- -- 58
2020-03-19 13:00:00 15.4 9 Este 19 Este 0 -- -- 62
2020-03-19 12:00:00 13.9 10 Nordeste 20 Nordeste 0 -- -- 67
2020-03-19 11:00:00 13.2 11 Este 17 Este 0 -- -- 66
2020-03-19 10:00:00 11.5 8 Nordeste 12 Nordeste 0 -- -- 79
2020-03-19 09:00:00 7 6 Noroeste 9 Norte 0 -- -- 94
2020-03-19 08:00:00 4.3 7 Norte 9 Norte 0 -- -- 94
2020-03-19 07:00:00 4.2 8 Norte 10 Norte 0 -- -- 92
2020-03-19 06:00:00 4.5 7 Norte 11 Norte 0 -- -- 92
2020-03-19 05:00:00 5 9 Norte 11 Norte 0 -- -- 91
2020-03-19 04:00:00 5.6 9 Norte 11 Norte 0 -- -- 90
2020-03-19 03:00:00 5.7 8 Norte 10 Norte 0 -- -- 89
2020-03-19 02:00:00 6.3 9 Norte 10 Norte 0 -- -- 89
2020-03-19 01:00:00 7.6 6 Norte 11 Norte 0 -- -- 86
2020-03-19 00:00:00 7.7 9 Norte 10 Noroeste 0 -- -- 85
2020-03-18 23:00:00 8.4 6 Norte 9 Noroeste 0 -- -- 85
2020-03-18 22:00:00 9.1 9 Norte 12 Noroeste 0 -- -- 81
2020-03-18 21:00:00 11.7 2 Este 10 Sudeste 0 -- -- 71
2020-03-18 20:00:00 13.8 7 Sudeste 10 Este 0 -- -- 63
2020-03-18 19:00:00 15.4 9 Este 13 Este 0 -- -- 58
2020-03-18 18:00:00 16.9 6 Este 11 Este 0 -- -- 54
2020-03-18 17:00:00 17.1 6 Este 17 Este 0 -- -- 51
2020-03-18 16:00:00 17.7 10 Este 28 Este 0 -- -- 53
2020-03-18 15:00:00 17.1 8 Este 16 Nordeste 0 -- -- 55
2020-03-18 14:00:00 16 8 Este 17 Este 0 -- -- 58
2020-03-18 13:00:00 14.9 9 Este 18 Nordeste 0 -- -- 60
2020-03-18 12:00:00 14.2 6 Este 14 Nordeste 0 -- -- 64
2020-03-18 11:00:00 12.3 6 Nordeste 18 Nordeste 0 -- -- 72
2020-03-18 10:00:00 10.7 9 Este 15 Este 0 -- -- 83
2020-03-18 09:00:00 6.9 4 Norte 9 Nordeste 0 -- -- 96
2020-03-18 08:00:00 4.5 5 Nordeste 10 Nordeste 0 -- -- 95
2020-03-18 07:00:00 4.3 6 Nordeste 10 Norte 0 -- -- 93
2020-03-18 06:00:00 4.4 9 Norte 10 Norte 0 -- -- 94
2020-03-18 05:00:00 4.8 5 Nordeste 12 Norte 0 -- -- 94
2020-03-18 04:00:00 4.1 10 Norte 12 Norte 0 -- -- 93
2020-03-18 03:00:00 4.1 10 Norte 11 Norte 0 -- -- 93
2020-03-18 02:00:00 4.3 8 Norte 11 Noroeste 0 -- -- 92
2020-03-18 01:00:00 4.9 8 Norte 13 Norte 0 -- -- 90
2020-03-18 00:00:00 6.1 10 Norte 15 Norte 0 -- -- 89
2020-03-17 23:00:00 6.2 8 Norte 14 Norte 0 -- -- 88
2020-03-17 22:00:00 6.5 6 Norte 12 Norte 0 -- -- 86
2020-03-17 21:00:00 7.7 5 Nordeste 13 Nordeste 0 -- -- 85
2020-03-17 20:00:00 8.6 4 Nordeste 14 Nordeste 0 -- -- 79
2020-03-17 19:00:00 11.3 11 Este 27 Este 0 -- -- 73
2020-03-17 18:00:00 12.3 17 Este 31 Este 0 -- -- 69
2020-03-17 17:00:00 12.9 18 Este 33 Este 0 -- -- 66
2020-03-17 16:00:00 13.3 24 Este 42 Este 0 -- -- 65
2020-03-17 15:00:00 14.1 26 Este 44 Este 0 -- -- 61
2020-03-17 14:00:00 15.1 26 Este 44 Este 0 -- -- 57
2020-03-17 13:00:00 14.5 31 Este 43 Este 0 -- -- 57
2020-03-17 12:00:00 14.2 29 Este 43 Este 0 -- -- 58
2020-03-17 11:00:00 12.2 21 Este 31 Este 0 -- -- 61
2020-03-17 10:00:00 9.7 9 Nordeste 15 Nordeste 0 -- -- 65
2020-03-17 09:00:00 6.8 4 Norte 7 Norte 0 -- -- 80
2020-03-17 08:00:00 5.1 3 Nordeste 9 Nordeste 0 -- -- 81
2020-03-17 07:00:00 4.9 4 Sudeste 5 Sudeste 0 -- -- 82
2020-03-17 06:00:00 4.3 3 Oeste 9 Noroeste 0 -- -- 84
2020-03-17 05:00:00 2.7 4 Norte 6 Noroeste 0 -- -- 87
2020-03-17 04:00:00 1.7 2 Norte 11 Norte 0 -- -- 81
2020-03-17 03:00:00 2.3 5 Norte 14 Norte 0 -- -- 78
2020-03-17 02:00:00 2.9 8 Norte 13 Norte 0 -- -- 78
2020-03-17 01:00:00 3.6 10 Norte 20 Noroeste 0 -- -- 71
2020-03-17 00:00:00 4.4 13 Norte 21 Norte 0 -- -- 66
2020-03-16 23:00:00 4.6 11 Norte 20 Norte 0 -- -- 64
2020-03-16 22:00:00 4.5 15 Norte 26 Norte 0 -- -- 65
2020-03-16 21:00:00 4.2 15 Norte 34 Noroeste 0 -- -- 66
2020-03-16 20:00:00 4.8 21 Norte 41 Noroeste 0 -- -- 60
2020-03-16 19:00:00 6.5 27 Noroeste 46 Norte 0 -- -- 57
2020-03-16 18:00:00 8.9 32 Norte 54 Norte 0 -- -- 48
2020-03-16 17:00:00 9 39 Norte 57 Norte 0 -- -- 46
2020-03-16 16:00:00 10.1 36 Norte 57 Norte 0 -- -- 48
2020-03-16 15:00:00 9.5 43 Norte 60 Norte 0 -- -- 49
2020-03-16 14:00:00 10.1 37 Norte 60 Norte 0 -- -- 41
2020-03-16 13:00:00 9.4 38 Norte 54 Norte 0 -- -- 45
2020-03-16 12:00:00 7.8 35 Norte 51 Norte 0 -- -- 56
2020-03-16 11:00:00 6.8 30 Norte 47 Norte 0 -- -- 60
2020-03-16 10:00:00 5.7 33 Noroeste 51 Noroeste 0 -- -- 68
2020-03-16 09:00:00 3.7 19 Noroeste 30 Noroeste 0 -- -- 77
2020-03-16 08:00:00 2.6 11 Noroeste 28 Noroeste 0 -- -- 80
2020-03-16 07:00:00 2.9 25 Noroeste 33 Noroeste 0 -- -- 77
2020-03-16 06:00:00 2.7 12 Noroeste 22 Noroeste 0 -- -- 80
2020-03-16 05:00:00 2.9 15 Noroeste 37 Noroeste 0 -- -- 78
2020-03-16 04:00:00 2.8 17 Noroeste 24 Noroeste 0 -- -- 83
2020-03-16 03:00:00 2.5 12 Noroeste 24 Noroeste 0 -- -- 86
2020-03-16 02:00:00 2.1 13 Noroeste 23 Norte 0.2 -- -- 91
2020-03-16 01:00:00 1 15 Norte 22 Norte 0.6 -- -- 92
2020-03-16 00:00:00 1.6 17 Noroeste 32 Noroeste 0.2 -- -- 92
2020-03-15 23:00:00 1 22 Noroeste 34 Noroeste 0.8 -- -- 93
2020-03-15 22:00:00 1.9 21 Oeste 42 Noroeste 0.6 -- -- 89
2020-03-15 21:00:00 3 32 Noroeste 52 Noroeste 0 -- -- 81
2020-03-15 20:00:00 4.5 34 Noroeste 56 Noroeste 0 -- -- 75
2020-03-15 19:00:00 8 28 Oeste 40 Oeste 0 -- -- 67
2020-03-15 18:00:00 14.9 4 Oeste 15 Noroeste 0 -- -- 40
2020-03-15 17:00:00 14.8 13 Noroeste 30 Oeste 0 -- -- 39
2020-03-15 16:00:00 13.3 21 Noroeste 33 Noroeste 0 -- -- 49
2020-03-15 15:00:00 14.2 24 Noroeste 33 Noroeste 0 -- -- 46
2020-03-15 14:00:00 15.1 25 Noroeste 33 Noroeste 0 -- -- 45
2020-03-15 13:00:00 14.5 13 Sur 26 Sur 0 -- -- 44
2020-03-15 12:00:00 12.1 11 Sur 18 Sur 0 -- -- 52
2020-03-15 11:00:00 9.1 6 Sudeste 12 Sudeste 0 -- -- 62
2020-03-15 10:00:00 6.8 4 Este 6 Sudeste 0 -- -- 67
2020-03-15 09:00:00 2.6 0 Calma 6 Norte 0 -- -- 90
2020-03-15 08:00:00 -0.8 6 Norte 9 Noroeste 0 -- -- 90
2020-03-15 07:00:00 -0.7 5 Noroeste 8 Noroeste 0 -- -- 89
2020-03-15 06:00:00 0 6 Noroeste 9 Noroeste 0 -- -- 88
2020-03-15 05:00:00 0.5 6 Norte 9 Noroeste 0 -- -- 86
2020-03-15 04:00:00 1.2 7 Norte 9 Norte 0 -- -- 85
2020-03-15 03:00:00 1.8 8 Noroeste 10 Noroeste 0 -- -- 85
2020-03-15 02:00:00 2.2 7 Norte 9 Noroeste 0 -- -- 83
2020-03-15 01:00:00 2.7 9 Norte 10 Noroeste 0 -- -- 82
2020-03-15 00:00:00 4.1 7 Norte 9 Norte 0 -- -- 78
2020-03-14 23:00:00 5.4 4 Norte 8 Nordeste 0 -- -- 72
2020-03-14 22:00:00 8 5 Este 8 Este 0 -- -- 57
2020-03-14 21:00:00 9.1 6 Este 8 Sudeste 0 -- -- 55
2020-03-14 20:00:00 11.8 7 Sudeste 10 Sudeste 0 -- -- 46
2020-03-14 19:00:00 15.2 8 Sudeste 15 Sur 0 -- -- 39
2020-03-14 18:00:00 16.8 11 Sur 19 Sur 0 -- -- 33
2020-03-14 17:00:00 17.1 11 Sudeste 19 Sur 0 -- -- 33
2020-03-14 16:00:00 16.9 8 Sur 21 Sur 0 -- -- 35
2020-03-14 15:00:00 16.2 10 Sudeste 19 Sur 0 -- -- 38
2020-03-14 14:00:00 14.9 7 Sur 16 Sur 0 -- -- 41
2020-03-14 13:00:00 13 4 Sur 13 Sur 0 -- -- 50
2020-03-14 12:00:00 10.5 5 Sur 14 Sudoeste 0 -- -- 60
2020-03-14 11:00:00 8.2 7 Sudoeste 12 Sudoeste 0 -- -- 74
2020-03-14 10:00:00 5.9 4 Oeste 10 Oeste 0 -- -- 94
2020-03-14 09:00:00 1.9 5 Noroeste 11 Noroeste 0 -- -- 96
2020-03-14 08:00:00 -0.2 8 Noroeste 12 Noroeste 0 -- -- 94
2020-03-14 07:00:00 -0.3 6 Noroeste 12 Noroeste 0 -- -- 93
2020-03-14 06:00:00 -0.4 9 Noroeste 11 Noroeste 0 -- -- 92
2020-03-14 05:00:00 0.3 6 Norte 11 Noroeste 0 -- -- 93
2020-03-14 04:00:00 0.9 9 Noroeste 10 Noroeste 0 -- -- 93
2020-03-14 03:00:00 1.9 2 Norte 5 Norte 0 -- -- 93
2020-03-14 02:00:00 2.9 3 Norte 4 Norte 0 -- -- 92
2020-03-14 01:00:00 3.5 2 Sudoeste 4 Sudoeste 0 -- -- 90
2020-03-14 00:00:00 4.7 3 Sudeste 5 Sudeste 0 -- -- 88
2020-03-13 23:00:00 5.3 2 Sur 4 Sudeste 0 -- -- 85
2020-03-13 22:00:00 6.7 3 Sudeste 12 Este 0 -- -- 82
2020-03-13 21:00:00 8.2 9 Este 15 Este 0 -- -- 77
2020-03-13 20:00:00 10.6 11 Este 16 Este 0 -- -- 69
2020-03-13 19:00:00 13.6 10 Este 14 Este 0 -- -- 58
2020-03-13 18:00:00 15.1 8 Sudeste 15 Sudeste 0 -- -- 52
2020-03-13 17:00:00 15.2 3 Sudeste 11 Este 0 -- -- 50
2020-03-13 16:00:00 14.7 4 Sur 14 Noroeste 0 -- -- 54
2020-03-13 15:00:00 13.8 5 Noroeste 14 Oeste 0 -- -- 57
2020-03-13 14:00:00 13 5 Norte 17 Noroeste 0 -- -- 58
2020-03-13 13:00:00 11.5 2 Nordeste 8 Este 0 -- -- 63
2020-03-13 12:00:00 10.3 4 Este 10 Este 0 -- -- 64
2020-03-13 11:00:00 9.5 5 Nordeste 10 Nordeste 0 -- -- 66
2020-03-13 10:00:00 8.7 8 Nordeste 13 Nordeste 0 -- -- 74
2020-03-13 09:00:00 8 8 Nordeste 13 Nordeste 0 -- -- 80
2020-03-13 08:00:00 7.1 4 Nordeste 6 Nordeste 0 -- -- 87
2020-03-13 07:00:00 7.1 2 Nordeste 4 Norte 0 -- -- 87
2020-03-13 06:00:00 7.3 0 Calma 2 Este 0 -- -- 84
2020-03-13 05:00:00 7.2 0 Calma 5 Sudoeste 0 -- -- 85
2020-03-13 04:00:00 7 2 Sur 5 Sudeste 0 -- -- 86
2020-03-13 03:00:00 7.4 3 Sudeste 6 Nordeste 0 -- -- 84
2020-03-13 02:00:00 6.9 4 Nordeste 7 Este 0 -- -- 84
2020-03-13 01:00:00 7.1 5 Nordeste 12 Nordeste 0 -- -- 79
2020-03-13 00:00:00 9.6 9 Nordeste 16 Nordeste 0 -- -- 73
2020-03-12 23:00:00 9.9 6 Nordeste 15 Nordeste 0 -- -- 74
2020-03-12 22:00:00 10.5 10 Nordeste 15 Nordeste 0 -- -- 73
2020-03-12 21:00:00 11.5 8 Nordeste 20 Este 0 -- -- 70
2020-03-12 20:00:00 13.7 10 Este 18 Este 0 -- -- 73
2020-03-12 19:00:00 15.7 13 Este 22 Este 0 -- -- 65
2020-03-12 18:00:00 17.8 12 Este 19 Este 0 -- -- 60
2020-03-12 17:00:00 19.6 5 Sudeste 12 Sudeste 0 -- -- 46
2020-03-12 16:00:00 19.5 9 Este 19 Este 0 -- -- 48
2020-03-12 15:00:00 19.4 4 Este 15 Este 0 -- -- 47
2020-03-12 14:00:00 18.9 9 Sudeste 18 Este 0 -- -- 45
2020-03-12 13:00:00 18.7 7 Sudeste 12 Sudeste 0 -- -- 49
2020-03-12 12:00:00 16.8 4 Norte 13 Noroeste 0 -- -- 53
2020-03-12 11:00:00 13.6 9 Noroeste 14 Noroeste 0 -- -- 63
2020-03-12 10:00:00 11.6 8 Noroeste 12 Noroeste 0 -- -- 71
2020-03-12 09:00:00 8.9 6 Norte 12 Noroeste 0 -- -- 83
2020-03-12 08:00:00 5.8 8 Norte 11 Norte 0 -- -- 89
2020-03-12 07:00:00 5.3 7 Noroeste 9 Norte 0 -- -- 88
2020-03-12 06:00:00 5.5 9 Norte 10 Norte 0 -- -- 88
2020-03-12 05:00:00 6 6 Norte 10 Norte 0 -- -- 88
2020-03-12 04:00:00 5.9 9 Norte 10 Norte 0 -- -- 86
2020-03-12 03:00:00 7.1 3 Nordeste 6 Nordeste 0 -- -- 84
2020-03-12 02:00:00 7.5 3 Este 9 Noroeste 0 -- -- 81
2020-03-12 01:00:00 9.1 6 Noroeste 9 Noroeste 0 -- -- 76
2020-03-12 00:00:00 10.1 3 Noroeste 8 Noroeste 0 -- -- 74
2020-03-11 23:00:00 11 6 Noroeste 9 Noroeste 0 -- -- 71
2020-03-11 22:00:00 11.4 3 Oeste 14 Noroeste 0 -- -- 69
2020-03-11 21:00:00 13.6 7 Norte 9 Noroeste 0 -- -- 61
2020-03-11 20:00:00 15.1 8 Norte 14 Norte 0 -- -- 55
2020-03-11 19:00:00 17.7 12 Norte 19 Nordeste 0 -- -- 51
2020-03-11 18:00:00 20.1 13 Nordeste 20 Nordeste 0 -- -- 44
2020-03-11 17:00:00 21.3 7 Este 15 Este 0 -- -- 40
2020-03-11 16:00:00 20.8 6 Sudeste 16 Sudoeste 0 -- -- 37
2020-03-11 15:00:00 19.9 9 Sur 16 Sur 0 -- -- 40
2020-03-11 14:00:00 18.3 6 Sur 18 Sur 0 -- -- 45
2020-03-11 13:00:00 16.7 5 Sudeste 13 Sudeste 0 -- -- 46
2020-03-11 12:00:00 15.1 6 Este 12 Este 0 -- -- 49
2020-03-11 11:00:00 13 5 Nordeste 12 Nordeste 0 -- -- 53
2020-03-11 10:00:00 9.6 8 Nordeste 13 Nordeste 0 -- -- 61
2020-03-11 09:00:00 5.8 3 Nordeste 8 Norte 0 -- -- 79
2020-03-11 08:00:00 1.6 5 Nordeste 8 Noroeste 0 -- -- 84
2020-03-11 07:00:00 2.9 2 Oeste 6 Noroeste 0 -- -- 77
2020-03-11 06:00:00 3.5 5 Norte 15 Norte 0 -- -- 77
2020-03-11 05:00:00 4.2 13 Norte 16 Noroeste 0 -- -- 75
2020-03-11 04:00:00 4.4 10 Norte 17 Noroeste 0 -- -- 76
2020-03-11 03:00:00 8.3 14 Noroeste 21 Noroeste 0 -- -- 81
2020-03-11 02:00:00 7.2 6 Oeste 14 Noroeste 0 -- -- 81
2020-03-11 01:00:00 7.2 12 Noroeste 13 Noroeste 0 -- -- 76
2020-03-11 00:00:00 9.9 10 Noroeste 20 Noroeste 0 -- -- 65
2020-03-10 23:00:00 10.4 13 Noroeste 16 Noroeste 0 -- -- 55
2020-03-10 22:00:00 11.3 9 Sudoeste 15 Oeste 0 -- -- 46
2020-03-10 21:00:00 12.2 11 Noroeste 13 Noroeste 0 -- -- 43
2020-03-10 20:00:00 14.1 2 Oeste 17 Noroeste 0 -- -- 37
2020-03-10 19:00:00 18.6 10 Oeste 20 Oeste 0 -- -- 26
2020-03-10 18:00:00 21.4 9 Noroeste 18 Noroeste 0 -- -- 25
2020-03-10 17:00:00 21.3 10 Oeste 19 Oeste 0 -- -- 29
2020-03-10 16:00:00 20.2 9 Sudoeste 24 Sudoeste 0 -- -- 34
2020-03-10 15:00:00 19.5 7 Sur 16 Sudoeste 0 -- -- 37
2020-03-10 14:00:00 18.2 8 Sur 14 Sur 0 -- -- 43
2020-03-10 13:00:00 15.5 5 Sudeste 13 Sudeste 0 -- -- 46
2020-03-10 12:00:00 13.3 4 Sudeste 10 Sudeste 0 -- -- 53
2020-03-10 11:00:00 10.9 5 Sudeste 10 Sudeste 0 -- -- 60
2020-03-10 10:00:00 9 3 Este 6 Este 0 -- -- 67
2020-03-10 09:00:00 5.1 3 Nordeste 5 Noroeste 0 -- -- 83
2020-03-10 08:00:00 4.5 3 Noroeste 5 Noroeste 0 -- -- 81
2020-03-10 07:00:00 5.2 2 Oeste 12 Oeste 0 -- -- 79
2020-03-10 06:00:00 5.9 8 Oeste 14 Noroeste 0 -- -- 76
2020-03-10 05:00:00 6.8 12 Noroeste 20 Oeste 0 -- -- 73
2020-03-10 04:00:00 6.7 8 Noroeste 20 Noroeste 0 -- -- 74
2020-03-10 03:00:00 7.4 16 Noroeste 22 Noroeste 0 -- -- 71
2020-03-10 02:00:00 6.4 12 Noroeste 17 Noroeste 0 -- -- 78
2020-03-10 01:00:00 6.7 9 Noroeste 18 Noroeste 0 -- -- 74
2020-03-10 00:00:00 7.8 12 Noroeste 18 Noroeste 0 -- -- 69
2020-03-09 23:00:00 7.2 9 Noroeste 14 Noroeste 0 -- -- 73
2020-03-09 22:00:00 7.7 8 Noroeste 13 Oeste 0 -- -- 69
2020-03-09 21:00:00 8.9 10 Oeste 21 Noroeste 0 -- -- 64
2020-03-09 20:00:00 9.7 9 Oeste 19 Oeste 0 -- -- 58
2020-03-09 19:00:00 12.9 12 Noroeste 25 Oeste 0 -- -- 48
2020-03-09 18:00:00 14.8 19 Oeste 30 Oeste 0 -- -- 41
2020-03-09 17:00:00 15.9 19 Oeste 28 Oeste 0 -- -- 37
2020-03-09 16:00:00 15.9 15 Noroeste 28 Oeste 0 -- -- 34
2020-03-09 15:00:00 14.6 8 Sudoeste 24 Noroeste 0 -- -- 40
2020-03-09 14:00:00 13.2 11 Oeste 23 Oeste 0 -- -- 45
2020-03-09 13:00:00 11.8 12 Noroeste 27 Oeste 0 -- -- 48
2020-03-09 12:00:00 10.3 15 Oeste 27 Oeste 0 -- -- 56
2020-03-09 11:00:00 8.2 15 Oeste 29 Oeste 0 -- -- 66
2020-03-09 10:00:00 6.2 17 Noroeste 27 Noroeste 0 -- -- 77
2020-03-09 09:00:00 3.9 18 Noroeste 23 Noroeste 0 -- -- 89
2020-03-09 08:00:00 2.2 13 Noroeste 19 Oeste 0 -- -- 91
2020-03-09 07:00:00 1.4 9 Noroeste 13 Noroeste 0 -- -- 91
2020-03-09 06:00:00 1.5 9 Noroeste 13 Oeste 0 -- -- 89
2020-03-09 05:00:00 2.2 13 Oeste 17 Oeste 0 -- -- 87
2020-03-09 04:00:00 3.2 13 Oeste 21 Oeste 0 -- -- 86
2020-03-09 03:00:00 3.4 10 Oeste 20 Oeste 0 -- -- 82
2020-03-09 02:00:00 4.1 10 Oeste 15 Oeste 0 -- -- 82
2020-03-09 01:00:00 5.1 8 Oeste 27 Oeste 0 -- -- 77
2020-03-09 00:00:00 6 13 Oeste 26 Oeste 0 -- -- 74
2020-03-08 23:00:00 6.2 10 Oeste 24 Oeste 0 -- -- 69
2020-03-08 22:00:00 7.4 18 Oeste 35 Oeste 0 -- -- 66
2020-03-08 21:00:00 8.7 25 Oeste 35 Oeste 0 -- -- 70
2020-03-08 20:00:00 8.4 11 Oeste 34 Oeste 0 -- -- 69
2020-03-08 19:00:00 10.9 24 Oeste 34 Oeste 0 -- -- 59
2020-03-08 18:00:00 12.7 19 Oeste 42 Oeste 0 -- -- 61
2020-03-08 17:00:00 12.8 31 Oeste 51 Oeste 0 -- -- 60
2020-03-08 16:00:00 13.4 32 Oeste 45 Oeste 0 -- -- 58
2020-03-08 15:00:00 13.1 28 Oeste 37 Oeste 0 -- -- 62
2020-03-08 14:00:00 10 6 Sur 20 Oeste 0 -- -- 76
2020-03-08 13:00:00 9.2 13 Oeste 23 Oeste 0 -- -- 77
2020-03-08 12:00:00 9.1 12 Oeste 24 Sudoeste 0 -- -- 76
2020-03-08 11:00:00 9 10 Sudoeste 21 Oeste 0 -- -- 73
2020-03-08 10:00:00 6.7 13 Oeste 19 Oeste 0 -- -- 84
2020-03-08 09:00:00 4.2 8 Oeste 13 Oeste 0 -- -- 94
2020-03-08 08:00:00 2.9 7 Oeste 12 Sudoeste 0 -- -- 93
2020-03-08 07:00:00 3.2 6 Oeste 15 Sudoeste 0 -- -- 94
2020-03-08 06:00:00 2 10 Oeste 13 Oeste 0 -- -- 94
2020-03-08 05:00:00 0 3 Oeste 7 Noroeste 0 -- -- 91
2020-03-08 04:00:00 0.7 7 Noroeste 14 Norte 0 -- -- 91
2020-03-08 03:00:00 0.4 12 Noroeste 14 Noroeste 0 -- -- 90
2020-03-08 02:00:00 1 4 Noroeste 13 Noroeste 0 -- -- 88
2020-03-08 01:00:00 2.3 8 Norte 10 Norte 0 -- -- 82
2020-03-08 00:00:00 2.7 3 Oeste 6 Noroeste 0 -- -- 83
2020-03-07 23:00:00 4.6 5 Norte 6 Norte 0 -- -- 77
2020-03-07 22:00:00 5.9 0 Calma 4 Noroeste 0 -- -- 75
2020-03-07 21:00:00 7.8 4 Noroeste 9 Noroeste 0 -- -- 70
2020-03-07 20:00:00 9.6 6 Noroeste 15 Noroeste 0 -- -- 63
2020-03-07 19:00:00 13.1 9 Sur 17 Sudoeste 0 -- -- 51
2020-03-07 18:00:00 14.8 9 Sur 20 Sur 0 -- -- 44
2020-03-07 17:00:00 14.9 11 Sur 21 Sur 0 -- -- 44
2020-03-07 16:00:00 14.4 13 Sur 27 Sur 0 -- -- 44
2020-03-07 15:00:00 13.2 8 Sudoeste 21 Sudoeste 0 -- -- 50
2020-03-07 14:00:00 11.9 9 Oeste 17 Sudoeste 0 -- -- 48
2020-03-07 13:00:00 11.1 7 Oeste 15 Oeste 0 -- -- 48
2020-03-07 12:00:00 10 8 Noroeste 21 Oeste 0 -- -- 56
2020-03-07 11:00:00 8.1 16 Noroeste 29 Noroeste 0 -- -- 64
2020-03-07 10:00:00 6.5 22 Noroeste 33 Noroeste 0 -- -- 81
2020-03-07 09:00:00 4.7 20 Noroeste 26 Noroeste 0 -- -- 90
2020-03-07 08:00:00 3.9 15 Oeste 22 Noroeste 0 -- -- 93
2020-03-07 07:00:00 3 9 Oeste 18 Oeste 0 -- -- 92
2020-03-07 06:00:00 2.9 10 Oeste 19 Oeste 0 -- -- 90
2020-03-07 05:00:00 3.1 10 Oeste 17 Oeste 0 -- -- 87
2020-03-07 04:00:00 3.7 12 Oeste 21 Oeste 0 -- -- 88
2020-03-07 03:00:00 3.1 8 Oeste 27 Oeste 0 -- -- 83
2020-03-07 02:00:00 4.4 18 Noroeste 32 Oeste 0 -- -- 82
2020-03-07 01:00:00 4.1 19 Oeste 28 Oeste 0 -- -- 80
2020-03-07 00:00:00 3 7 Sudoeste 16 Oeste 0 -- -- 73
2020-03-06 23:00:00 3.9 12 Oeste 25 Oeste 0 -- -- 65
2020-03-06 22:00:00 3.7 13 Oeste 23 Sudoeste 0 -- -- 62
2020-03-06 21:00:00 3.9 12 Sudoeste 29 Oeste 0 -- -- 62
2020-03-06 20:00:00 5 17 Oeste 42 Noroeste 0 -- -- 53
2020-03-06 19:00:00 6.4 22 Noroeste 54 Noroeste 0 -- -- 55
2020-03-06 18:00:00 8.1 35 Noroeste 57 Noroeste 0 -- -- 50
2020-03-06 17:00:00 8.1 33 Noroeste 52 Noroeste 0 -- -- 46
2020-03-06 16:00:00 7.6 18 Noroeste 42 Oeste 0 -- -- 53
2020-03-06 15:00:00 8.8 29 Oeste 58 Noroeste 0 -- -- 51
2020-03-06 14:00:00 8.6 33 Noroeste 49 Noroeste 0 -- -- 46
2020-03-06 13:00:00 7.1 27 Noroeste 44 Oeste 0.2 -- -- 62
2020-03-06 12:00:00 5.2 29 Oeste 43 Oeste 0 -- -- 72
2020-03-06 11:00:00 6.2 30 Oeste 47 Oeste 0 -- -- 60
2020-03-06 10:00:00 4.6 27 Oeste 50 Oeste 0 -- -- 76
2020-03-06 09:00:00 3 25 Oeste 48 Oeste 0 -- -- 82
2020-03-06 08:00:00 2.7 28 Oeste 42 Oeste 0 -- -- 84
2020-03-06 07:00:00 2.6 24 Oeste 44 Oeste 0 -- -- 83
2020-03-06 06:00:00 2.9 31 Oeste 46 Oeste 0 -- -- 84
2020-03-06 05:00:00 2.8 16 Oeste 33 Oeste 0 -- -- 81
2020-03-06 04:00:00 3.8 21 Oeste 34 Oeste 0 -- -- 82
2020-03-06 03:00:00 3.7 18 Oeste 31 Oeste 0 -- -- 86
2020-03-06 02:00:00 3.8 11 Sudoeste 21 Oeste 0.2 -- -- 89
2020-03-06 01:00:00 3.6 7 Sudoeste 18 Sudoeste 0 -- -- 88
2020-03-06 00:00:00 3.1 10 Sudoeste 22 Oeste 0 -- -- 89
2020-03-05 23:00:00 3.7 15 Oeste 30 Oeste 0 -- -- 84
2020-03-05 22:00:00 3.7 9 Oeste 16 Noroeste 0 -- -- 84
2020-03-05 21:00:00 4.9 14 Oeste 39 Oeste 0 -- -- 77
2020-03-05 20:00:00 5.6 20 Oeste 38 Oeste 0 -- -- 77
2020-03-05 19:00:00 7 22 Oeste 47 Oeste 0 -- -- 68
2020-03-05 18:00:00 9.1 33 Oeste 49 Oeste 0 -- -- 61
2020-03-05 17:00:00 10.5 31 Oeste 46 Oeste 0 -- -- 57
2020-03-05 16:00:00 11.6 33 Oeste 51 Oeste 0 -- -- 61
2020-03-05 15:00:00 9.4 29 Oeste 54 Oeste 0 -- -- 80
2020-03-05 14:00:00 10.4 42 Oeste 59 Oeste 0 -- -- 66
2020-03-05 13:00:00 10.2 28 Oeste 55 Oeste 0 -- -- 66
2020-03-05 12:00:00 9.7 36 Oeste 63 Oeste 0 -- -- 66
2020-03-05 11:00:00 8.8 42 Oeste 60 Sudoeste 0 -- -- 65
2020-03-05 10:00:00 7.9 25 Oeste 51 Oeste 0 -- -- 75
2020-03-05 09:00:00 7 32 Oeste 52 Oeste 0 -- -- 77
2020-03-05 08:00:00 7.5 32 Oeste 49 Oeste 1.4 -- -- 86
2020-03-05 07:00:00 9.3 24 Sudoeste 44 Sudoeste 1.2 -- -- 92
2020-03-05 06:00:00 9.8 32 Sur 50 Sur 0 -- -- 88
2020-03-05 05:00:00 10.2 34 Sur 54 Sudoeste 0 -- -- 87
2020-03-05 04:00:00 10.2 28 Sur 51 Sur 0 -- -- 88
2020-03-05 03:00:00 10.6 32 Sur 52 Sur 0 -- -- 85
2020-03-05 02:00:00 10.3 22 Sur 36 Sur 0 -- -- 92
2020-03-05 01:00:00 10.4 24 Sur 36 Sur 0 -- -- 91
2020-03-05 00:00:00 10.3 18 Sur 30 Sur 0 -- -- 90
2020-03-04 23:00:00 10.5 12 Sur 21 Sur 0 -- -- 88
2020-03-04 22:00:00 10.6 7 Sudoeste 13 Sudoeste 0 -- -- 85
2020-03-04 21:00:00 11.3 9 Sudoeste 17 Sudoeste 0 -- -- 81
2020-03-04 20:00:00 12.1 9 Sudoeste 21 Oeste 0 -- -- 76
2020-03-04 19:00:00 12.8 16 Oeste 36 Oeste 0 -- -- 68
2020-03-04 18:00:00 13.5 15 Oeste 33 Oeste 0 -- -- 66
2020-03-04 17:00:00 14.6 19 Oeste 42 Oeste 0 -- -- 59
2020-03-04 16:00:00 14.5 25 Oeste 40 Oeste 0 -- -- 62
2020-03-04 15:00:00 14.5 25 Oeste 35 Oeste 0 -- -- 67
2020-03-04 14:00:00 14.4 23 Oeste 40 Oeste 0 -- -- 68
2020-03-04 13:00:00 14.2 19 Oeste 37 Oeste 0 -- -- 67
2020-03-04 12:00:00 12.3 20 Oeste 30 Oeste 0 -- -- 74
2020-03-04 11:00:00 12.6 17 Oeste 30 Oeste 0 -- -- 70
2020-03-04 10:00:00 11.1 12 Sudoeste 25 Oeste 0 -- -- 74
2020-03-04 09:00:00 10.5 15 Sudoeste 37 Oeste 0 -- -- 76
2020-03-04 08:00:00 10.5 21 Oeste 36 Sudoeste 0 -- -- 77
2020-03-04 07:00:00 10.5 12 Sudoeste 31 Oeste 0 -- -- 79
2020-03-04 06:00:00 10.2 10 Sudoeste 39 Sudoeste 0 -- -- 81
2020-03-04 05:00:00 10.9 24 Oeste 42 Oeste 0 -- -- 81
2020-03-04 04:00:00 11.2 20 Sudoeste 32 Sudoeste 0 -- -- 81
2020-03-04 03:00:00 10.4 11 Sudoeste 25 Oeste 0 -- -- 83
2020-03-04 02:00:00 8.8 3 Sudoeste 6 Oeste 0 -- -- 88
2020-03-04 01:00:00 8.8 3 Oeste 16 Noroeste 0 -- -- 87
2020-03-04 00:00:00 8.6 10 Noroeste 23 Oeste 0 -- -- 87
2020-03-03 23:00:00 8.8 17 Oeste 27 Oeste 0 -- -- 83
2020-03-03 22:00:00 7.8 8 Oeste 18 Oeste 0 -- -- 77
2020-03-03 21:00:00 9.2 16 Oeste 41 Noroeste 0 -- -- 76
2020-03-03 20:00:00 9.9 21 Oeste 45 Oeste 0 -- -- 72
2020-03-03 19:00:00 10.8 29 Oeste 54 Oeste 0 -- -- 67
2020-03-03 18:00:00 12.5 39 Oeste 60 Oeste 0 -- -- 60
2020-03-03 17:00:00 13.7 35 Oeste 57 Oeste 0 -- -- 58
2020-03-03 16:00:00 14.7 36 Oeste 62 Oeste 0 -- -- 57
2020-03-03 15:00:00 15 41 Oeste 66 Oeste 0 -- -- 58
2020-03-03 14:00:00 15 44 Oeste 73 Oeste 0 -- -- 61
2020-03-03 13:00:00 14.9 44 Oeste 66 Oeste 0 -- -- 64
2020-03-03 12:00:00 13.9 41 Oeste 68 Oeste 0.2 -- -- 72
2020-03-03 11:00:00 10.9 24 Oeste 39 Oeste 0 -- -- 91
2020-03-03 10:00:00 7.2 9 Sur 20 Sur 1 -- -- 93
2020-03-03 09:00:00 5.5 3 Sudeste 8 Sur 0.4 -- -- 93
2020-03-03 08:00:00 4.7 5 Sudeste 10 Sudeste 0 -- -- 92
2020-03-03 07:00:00 4.5 9 Sur 19 Sudoeste 0.2 -- -- 93
2020-03-03 06:00:00 4.1 5 Sudoeste 10 Sudoeste 0.2 -- -- 93
2020-03-03 05:00:00 4 5 Sudoeste 21 Sudoeste 0.4 -- -- 91
2020-03-03 04:00:00 3.8 12 Sur 21 Sur 0 -- -- 89
2020-03-03 03:00:00 3.6 11 Sur 21 Sur 0 -- -- 85
2020-03-03 02:00:00 3.9 7 Sudoeste 24 Sudeste 0 -- -- 79
2020-03-03 01:00:00 3.9 7 Sudoeste 28 Sudoeste 0 -- -- 76
2020-03-03 00:00:00 4.2 13 Sudoeste 26 Oeste 0 -- -- 78
2020-03-02 23:00:00 3.8 19 Oeste 27 Oeste 0 -- -- 78
2020-03-02 22:00:00 3.7 14 Oeste 24 Oeste 0 -- -- 79
2020-03-02 21:00:00 2.7 8 Sudoeste 23 Oeste 0 -- -- 84
2020-03-02 20:00:00 3.3 17 Oeste 35 Oeste 0 -- -- 79
2020-03-02 19:00:00 4.1 24 Oeste 46 Oeste 0 -- -- 72
2020-03-02 18:00:00 5.5 30 Oeste 50 Oeste 0 -- -- 69
2020-03-02 17:00:00 6 31 Oeste 49 Oeste 0 -- -- 67
2020-03-02 16:00:00 6.1 36 Oeste 54 Oeste 0 -- -- 67
2020-03-02 15:00:00 6.2 37 Oeste 53 Oeste 0 -- -- 67
2020-03-02 14:00:00 5.7 33 Oeste 71 Oeste 0 -- -- 75
2020-03-02 13:00:00 5.8 37 Oeste 57 Oeste 0.2 -- -- 70
2020-03-02 12:00:00 4.3 27 Oeste 48 Oeste 0.4 -- -- 88
2020-03-02 11:00:00 4.9 33 Oeste 49 Oeste 0 -- -- 83
2020-03-02 10:00:00 4.6 26 Oeste 45 Oeste 0 -- -- 82
2020-03-02 09:00:00 3.8 24 Oeste 44 Oeste 0 -- -- 85
2020-03-02 08:00:00 3.2 28 Oeste 46 Oeste 0 -- -- 87
2020-03-02 07:00:00 3.8 31 Oeste 64 Oeste 0 -- -- 86
2020-03-02 06:00:00 5 41 Oeste 64 Oeste 0 -- -- 79
2020-03-02 05:00:00 6.3 39 Oeste 71 Oeste 0 -- -- 81
2020-03-02 04:00:00 7.7 50 Oeste 81 Noroeste 1.2 -- -- 84
2020-03-02 03:00:00 9.6 28 Sudoeste 60 Sudoeste 1.4 -- -- 93
2020-03-02 02:00:00 9.4 27 Sudoeste 48 Sudoeste 1.8 -- -- 94
2020-03-02 01:00:00 8.5 29 Sur 45 Sur 1.6 -- -- 95
2020-03-02 00:00:00 6.8 17 Sur 33 Sur 1.8 -- -- 94
2020-03-01 23:00:00 6.7 22 Sur 32 Sur 1.4 -- -- 91
2020-03-01 22:00:00 6.9 17 Sudoeste 35 Sudoeste 0.6 -- -- 86
2020-03-01 21:00:00 7.4 26 Sudoeste 44 Sur 1 -- -- 86
2020-03-01 20:00:00 9.7 20 Sudoeste 45 Sudoeste 0 -- -- 64
2020-03-01 19:00:00 10.3 28 Sur 45 Sudoeste 0 -- -- 61
2020-03-01 18:00:00 11.6 25 Sudoeste 43 Sudoeste 0 -- -- 57
2020-03-01 17:00:00 11.8 26 Sudoeste 48 Oeste 0 -- -- 58
2020-03-01 16:00:00 13.3 28 Oeste 44 Sudoeste 0 -- -- 39
2020-03-01 15:00:00 13.2 19 Sudoeste 42 Sudoeste 0 -- -- 48
2020-03-01 14:00:00 14.3 19 Oeste 38 Oeste 0 -- -- 45
2020-03-01 13:00:00 12.7 27 Oeste 37 Oeste 0 -- -- 54
2020-03-01 12:00:00 12.1 24 Oeste 35 Sudoeste 0 -- -- 59
2020-03-01 11:00:00 9.6 25 Oeste 41 Oeste 0 -- -- 70
2020-03-01 10:00:00 8.3 11 Oeste 22 Sudoeste 0 -- -- 81
2020-03-01 09:00:00 6.6 13 Sur 27 Sudoeste 0 -- -- 88
2020-03-01 08:00:00 4.6 10 Sudoeste 40 Sudoeste 0 -- -- 91
2020-03-01 07:00:00 5.4 23 Sudoeste 41 Sudoeste 0.2 -- -- 90
2020-03-01 06:00:00 5.1 10 Sur 24 Sur 0 -- -- 90
2020-03-01 05:00:00 5.3 18 Sur 34 Sur 0.2 -- -- 88
2020-03-01 04:00:00 5.4 14 Sur 22 Sudoeste 0 -- -- 87
2020-03-01 03:00:00 5.5 8 Sur 17 Sur 0 -- -- 86
2020-03-01 02:00:00 5.6 8 Sudoeste 14 Sur 0 -- -- 89
2020-03-01 01:00:00 5.6 4 Sudoeste 18 Sudoeste 0.2 -- -- 87
2020-03-01 00:00:00 6.2 8 Sudoeste 12 Sudoeste 0 -- -- 79
2020-02-29 23:00:00 6 4 Sur 14 Sudoeste 0 -- -- 76
2020-02-29 22:00:00 5.9 6 Sur 18 Oeste 0 -- -- 74
2020-02-29 21:00:00 6.1 14 Oeste 30 Oeste 0 -- -- 73
2020-02-29 20:00:00 6.8 15 Oeste 30 Noroeste 0 -- -- 67
2020-02-29 19:00:00 8 18 Oeste 32 Oeste 0 -- -- 60
2020-02-29 18:00:00 9.8 23 Oeste 48 Oeste 0 -- -- 52
2020-02-29 17:00:00 10 23 Oeste 50 Oeste 0 -- -- 59
2020-02-29 16:00:00 11 28 Oeste 55 Oeste 0 -- -- 52
2020-02-29 15:00:00 11.1 41 Oeste 65 Oeste 0 -- -- 49
2020-02-29 14:00:00 11.1 45 Oeste 63 Oeste 0 -- -- 49
2020-02-29 13:00:00 10.7 45 Oeste 61 Oeste 0 -- -- 50
2020-02-29 12:00:00 10.1 41 Oeste 57 Oeste 0 -- -- 59
2020-02-29 11:00:00 10 39 Oeste 55 Oeste 0 -- -- 69
2020-02-29 10:00:00 8.7 17 Sudoeste 28 Sudoeste 0 -- -- 88
2020-02-29 09:00:00 7 18 Sudoeste 35 Sur 0 -- -- 92
2020-02-29 08:00:00 6.5 25 Sur 38 Sur 0 -- -- 91
2020-02-29 07:00:00 5.9 24 Sur 48 Sur 0 -- -- 89
2020-02-29 06:00:00 6.4 32 Sur 59 Sudoeste 0 -- -- 80
2020-02-29 05:00:00 7 39 Sur 57 Sur 0 -- -- 71
2020-02-29 04:00:00 7 26 Sur 47 Sur 0 -- -- 67
2020-02-29 03:00:00 8.4 24 Sur 60 Sudoeste 0 -- -- 63
2020-02-29 02:00:00 8.5 30 Sudoeste 58 Sudoeste 0 -- -- 61
2020-02-29 01:00:00 8.4 13 Sudeste 26 Sur 0 -- -- 59
2020-02-29 00:00:00 9.7 19 Sur 36 Sur 0 -- -- 50
2020-02-28 23:00:00 9.9 14 Sur 34 Sur 0 -- -- 46
2020-02-28 22:00:00 11.1 13 Sur 24 Sur 0 -- -- 42
2020-02-28 21:00:00 10.5 3 Sudoeste 13 Sur 0 -- -- 41
2020-02-28 20:00:00 11.2 2 Sudeste 22 Sur 0 -- -- 38
2020-02-28 19:00:00 13.2 17 Sur 37 Sur 0 -- -- 34
2020-02-28 18:00:00 15 23 Sur 41 Sur 0 -- -- 31
2020-02-28 17:00:00 15.8 28 Sur 41 Sur 0 -- -- 29
2020-02-28 16:00:00 16.1 26 Sur 36 Sudeste 0 -- -- 39
2020-02-28 15:00:00 13.7 10 Sudeste 21 Sudeste 0 -- -- 40
2020-02-28 14:00:00 13.4 11 Sudeste 22 Sudeste 0 -- -- 42
2020-02-28 13:00:00 11.9 12 Este 21 Este 0 -- -- 51
2020-02-28 12:00:00 11.1 9 Sudeste 15 Sudeste 0 -- -- 52
2020-02-28 11:00:00 9.7 4 Sudeste 10 Sudeste 0 -- -- 54
2020-02-28 10:00:00 7.3 3 Este 8 Oeste 0 -- -- 74
2020-02-28 09:00:00 2.9 6 Sudoeste 13 Sudoeste 0 -- -- 90
2020-02-28 08:00:00 1.2 3 Oeste 9 Oeste 0 -- -- 85
2020-02-28 07:00:00 3.1 4 Noroeste 7 Sur 0 -- -- 79
2020-02-28 06:00:00 4.8 4 Sudeste 15 Sudoeste 0 -- -- 77
2020-02-28 05:00:00 5.1 12 Noroeste 27 Noroeste 0 -- -- 80
2020-02-28 04:00:00 4.9 16 Noroeste 22 Noroeste 0 -- -- 83
2020-02-28 03:00:00 4.9 7 Oeste 19 Oeste 0 -- -- 81
2020-02-28 02:00:00 5.1 12 Oeste 17 Oeste 0 -- -- 79
2020-02-28 01:00:00 5.1 12 Sudoeste 14 Sudoeste 0 -- -- 77
2020-02-28 00:00:00 5.5 0 Calma 6 Sudoeste 0 -- -- 75